sensor_id;sensor_type;location;lat;lon;timestamp;pressure;altitude;pressure_sealevel;temperature;humidity
78488;BME280;67885;49.758;9.582;2024-01-16T00:00:55;98460.88;;;4.65;47.96
78488;BME280;67885;49.758;9.582;2024-01-16T00:03:22;98509.47;;;4.70;48.19
78488;BME280;67885;49.758;9.582;2024-01-16T00:05:49;98480.72;;;4.69;48.22
78488;BME280;67885;49.758;9.582;2024-01-16T00:08:16;98466.63;;;4.57;48.80
78488;BME280;67885;49.758;9.582;2024-01-16T00:10:43;98420.81;;;4.37;49.31
78488;BME280;67885;49.758;9.582;2024-01-16T00:13:09;98440.75;;;4.52;48.59
78488;BME280;67885;49.758;9.582;2024-01-16T00:15:36;98478.94;;;4.82;48.06
78488;BME280;67885;49.758;9.582;2024-01-16T00:18:03;98488.28;;;4.86;48.14
78488;BME280;67885;49.758;9.582;2024-01-16T00:20:29;98467.38;;;4.72;47.98
78488;BME280;67885;49.758;9.582;2024-01-16T00:22:57;98491.13;;;4.83;48.48
78488;BME280;67885;49.758;9.582;2024-01-16T00:25:24;98388.59;;;4.22;48.38
78488;BME280;67885;49.758;9.582;2024-01-16T00:27:51;98492.88;;;4.83;48.75
78488;BME280;67885;49.758;9.582;2024-01-16T00:30:18;98499.22;;;4.80;49.14
78488;BME280;67885;49.758;9.582;2024-01-16T00:32:45;98501.72;;;4.82;48.60
78488;BME280;67885;49.758;9.582;2024-01-16T00:35:12;98500.88;;;4.81;48.35
78488;BME280;67885;49.758;9.582;2024-01-16T00:37:39;98500.44;;;4.75;48.72
78488;BME280;67885;49.758;9.582;2024-01-16T00:40:07;98476.72;;;4.50;48.47
78488;BME280;67885;49.758;9.582;2024-01-16T00:42:35;98497.09;;;4.72;48.87
78488;BME280;67885;49.758;9.582;2024-01-16T00:45:02;98504.03;;;4.73;49.16
78488;BME280;67885;49.758;9.582;2024-01-16T00:47:29;98510.00;;;4.76;48.06
78488;BME280;67885;49.758;9.582;2024-01-16T00:49:56;98516.50;;;4.70;48.39
78488;BME280;67885;49.758;9.582;2024-01-16T00:52:23;98508.63;;;4.70;48.97
78488;BME280;67885;49.758;9.582;2024-01-16T00:54:50;98523.19;;;4.61;48.63
78488;BME280;67885;49.758;9.582;2024-01-16T00:57:17;98514.19;;;4.65;48.93
78488;BME280;67885;49.758;9.582;2024-01-16T00:59:45;98517.66;;;4.66;49.17
78488;BME280;67885;49.758;9.582;2024-01-16T01:02:12;98519.34;;;4.67;49.07
78488;BME280;67885;49.758;9.582;2024-01-16T01:04:38;98516.59;;;4.68;49.12
78488;BME280;67885;49.758;9.582;2024-01-16T01:07:06;98521.63;;;4.71;48.80
78488;BME280;67885;49.758;9.582;2024-01-16T01:09:32;98519.34;;;4.67;49.25
78488;BME280;67885;49.758;9.582;2024-01-16T01:11:59;98517.66;;;4.66;48.41
78488;BME280;67885;49.758;9.582;2024-01-16T01:14:27;98527.81;;;4.58;48.69
78488;BME280;67885;49.758;9.582;2024-01-16T01:16:55;98530.09;;;4.49;49.13
78488;BME280;67885;49.758;9.582;2024-01-16T01:19:21;98527.47;;;4.49;48.97
78488;BME280;67885;49.758;9.582;2024-01-16T01:21:48;98524.84;;;4.49;49.18
78488;BME280;67885;49.758;9.582;2024-01-16T01:24:14;98519.63;;;4.49;49.44
78488;BME280;67885;49.758;9.582;2024-01-16T01:26:42;98515.31;;;4.48;49.33
78488;BME280;67885;49.758;9.582;2024-01-16T01:29:09;98523.72;;;4.53;48.76
78488;BME280;67885;49.758;9.582;2024-01-16T01:31:37;98536.94;;;4.52;48.54
78488;BME280;67885;49.758;9.582;2024-01-16T01:34:04;98539.56;;;4.52;48.62
78488;BME280;67885;49.758;9.582;2024-01-16T01:36:30;98507.59;;;4.32;49.24
78488;BME280;67885;49.758;9.582;2024-01-16T01:38:57;98540.47;;;4.51;48.71
78488;BME280;67885;49.758;9.582;2024-01-16T01:41:24;98496.78;;;4.24;48.92
78488;BME280;67885;49.758;9.582;2024-01-16T01:43:50;98467.28;;;4.08;48.53
78488;BME280;67885;49.758;9.582;2024-01-16T01:46:18;98528.81;;;4.42;48.44
78488;BME280;67885;49.758;9.582;2024-01-16T01:48:47;98546.28;;;4.56;49.17
78488;BME280;67885;49.758;9.582;2024-01-16T01:51:18;98540.16;;;4.55;48.25
78488;BME280;67885;49.758;9.582;2024-01-16T01:53:48;98543.22;;;4.62;48.63
78488;BME280;67885;49.758;9.582;2024-01-16T01:56:19;98545.75;;;4.64;48.15
78488;BME280;67885;49.758;9.582;2024-01-16T01:58:47;98544.59;;;4.68;48.39
78488;BME280;67885;49.758;9.582;2024-01-16T02:01:16;98533.78;;;4.60;48.12
78488;BME280;67885;49.758;9.582;2024-01-16T02:03:47;98557.91;;;4.65;48.21
78488;BME280;67885;49.758;9.582;2024-01-16T02:06:15;98552.47;;;4.68;48.18
78488;BME280;67885;49.758;9.582;2024-01-16T02:08:42;98513.28;;;4.39;47.95
78488;BME280;67885;49.758;9.582;2024-01-16T02:11:08;98561.91;;;4.58;48.97
78488;BME280;67885;49.758;9.582;2024-01-16T02:13:35;98563.38;;;4.62;47.84
78488;BME280;67885;49.758;9.582;2024-01-16T02:16:03;98554.97;;;4.56;48.67
78488;BME280;67885;49.758;9.582;2024-01-16T02:18:31;98568.84;;;4.59;48.66
78488;BME280;67885;49.758;9.582;2024-01-16T02:21:00;98566.72;;;4.64;48.65
78488;BME280;67885;49.758;9.582;2024-01-16T02:23:31;98568.19;;;4.68;48.64
78488;BME280;67885;49.758;9.582;2024-01-16T02:25:57;98556.06;;;4.67;48.64
78488;BME280;67885;49.758;9.582;2024-01-16T02:28:24;98567.50;;;4.79;48.12
78488;BME280;67885;49.758;9.582;2024-01-16T02:30:51;98547.84;;;4.59;48.50
78488;BME280;67885;49.758;9.582;2024-01-16T02:33:17;98570.75;;;4.82;48.17
78488;BME280;67885;49.758;9.582;2024-01-16T02:35:44;98567.91;;;4.85;48.37
78488;BME280;67885;49.758;9.582;2024-01-16T02:38:11;98576.53;;;4.87;47.86
78488;BME280;67885;49.758;9.582;2024-01-16T02:40:39;98566.56;;;4.80;48.39
78488;BME280;67885;49.758;9.582;2024-01-16T02:43:06;98569.50;;;4.75;47.87
78488;BME280;67885;49.758;9.582;2024-01-16T02:45:32;98574.41;;;4.67;48.79
78488;BME280;67885;49.758;9.582;2024-01-16T02:47:59;98571.25;;;4.62;49.40
78488;BME280;67885;49.758;9.582;2024-01-16T02:50:26;98590.53;;;4.61;48.83
78488;BME280;67885;49.758;9.582;2024-01-16T02:52:53;98561.13;;;4.43;48.83
78488;BME280;67885;49.758;9.582;2024-01-16T02:55:20;98577.56;;;4.45;49.10
78488;BME280;67885;49.758;9.582;2024-01-16T02:57:48;98574.50;;;4.38;48.49
78488;BME280;67885;49.758;9.582;2024-01-16T03:00:15;98581.66;;;4.36;49.65
78488;BME280;67885;49.758;9.582;2024-01-16T03:02:42;98560.13;;;4.31;49.88
78488;BME280;67885;49.758;9.582;2024-01-16T03:05:09;98561.59;;;4.35;49.57
78488;BME280;67885;49.758;9.582;2024-01-16T03:07:36;98541.53;;;4.21;49.64
78488;BME280;67885;49.758;9.582;2024-01-16T03:10:03;98586.94;;;4.49;49.46
78488;BME280;67885;49.758;9.582;2024-01-16T03:12:30;98549.69;;;4.16;49.42
78488;BME280;67885;49.758;9.582;2024-01-16T03:14:58;98556.09;;;4.39;48.56
78488;BME280;67885;49.758;9.582;2024-01-16T03:17:25;98585.88;;;4.51;48.70
78488;BME280;67885;49.758;9.582;2024-01-16T03:19:51;98583.47;;;4.48;49.34
78488;BME280;67885;49.758;9.582;2024-01-16T03:22:18;98533.03;;;4.17;49.23
78488;BME280;67885;49.758;9.582;2024-01-16T03:24:45;98536.41;;;4.19;49.21
78488;BME280;67885;49.758;9.582;2024-01-16T03:27:11;98585.53;;;4.43;49.49
78488;BME280;67885;49.758;9.582;2024-01-16T03:29:38;98586.94;;;4.49;49.92
78488;BME280;67885;49.758;9.582;2024-01-16T03:32:06;98581.41;;;4.53;48.73
78488;BME280;67885;49.758;9.582;2024-01-16T03:34:33;98587.47;;;4.54;52.19
78488;BME280;67885;49.758;9.582;2024-01-16T03:37:00;98565.22;;;4.47;48.83
78488;BME280;67885;49.758;9.582;2024-01-16T03:39:26;98590.75;;;4.58;48.97
78488;BME280;67885;49.758;9.582;2024-01-16T03:41:53;98584.75;;;4.55;49.49
78488;BME280;67885;49.758;9.582;2024-01-16T03:44:20;98582.66;;;4.61;49.03
78488;BME280;67885;49.758;9.582;2024-01-16T03:46:46;98436.53;;;3.42;48.32
78488;BME280;67885;49.758;9.582;2024-01-16T03:49:14;98571.19;;;4.49;48.78
78488;BME280;67885;49.758;9.582;2024-01-16T03:51:41;98579.81;;;4.51;48.69
78488;BME280;67885;49.758;9.582;2024-01-16T03:54:11;98576.66;;;4.46;48.93
78488;BME280;67885;49.758;9.582;2024-01-16T03:56:38;98591.78;;;4.55;48.91
78488;BME280;67885;49.758;9.582;2024-01-16T03:59:05;98566.56;;;4.39;48.81
78488;BME280;67885;49.758;9.582;2024-01-16T04:01:31;98592.72;;;4.54;48.96
78488;BME280;67885;49.758;9.582;2024-01-16T04:03:58;98555.81;;;4.02;48.43
78488;BME280;67885;49.758;9.582;2024-01-16T04:06:26;98604.13;;;4.53;48.83
78488;BME280;67885;49.758;9.582;2024-01-16T04:08:54;98596.28;;;4.53;49.09
78488;BME280;67885;49.758;9.582;2024-01-16T04:11:21;98602.28;;;4.55;48.93
78488;BME280;67885;49.758;9.582;2024-01-16T04:13:47;98604.78;;;4.56;49.42
78488;BME280;67885;49.758;9.582;2024-01-16T04:16:15;98593.56;;;4.54;48.99
78488;BME280;67885;49.758;9.582;2024-01-16T04:18:43;98610.28;;;4.66;48.48
78488;BME280;67885;49.758;9.582;2024-01-16T04:21:09;98611.84;;;4.69;48.72
78488;BME280;67885;49.758;9.582;2024-01-16T04:23:38;98609.78;;;4.74;48.08
78488;BME280;67885;49.758;9.582;2024-01-16T04:26:04;98606.00;;;4.78;48.52
78488;BME280;67885;49.758;9.582;2024-01-16T04:28:31;98538.47;;;4.14;48.18
78488;BME280;67885;49.758;9.582;2024-01-16T04:30:58;98611.38;;;4.89;48.36
78488;BME280;67885;49.758;9.582;2024-01-16T04:33:25;98610.16;;;4.95;47.89
78488;BME280;67885;49.758;9.582;2024-01-16T04:35:51;98610.78;;;4.99;48.26
78488;BME280;67885;49.758;9.582;2024-01-16T04:38:18;98614.16;;;5.01;47.42
78488;BME280;67885;49.758;9.582;2024-01-16T04:40:46;98615.91;;;5.00;47.77
78488;BME280;67885;49.758;9.582;2024-01-16T04:43:13;98608.91;;;5.01;47.89
78488;BME280;67885;49.758;9.582;2024-01-16T04:45:39;98608.91;;;5.01;47.85
78488;BME280;67885;49.758;9.582;2024-01-16T04:48:06;98583.06;;;4.82;47.47
78488;BME280;67885;49.758;9.582;2024-01-16T04:50:33;98587.69;;;4.91;52.06
78488;BME280;67885;49.758;9.582;2024-01-16T04:53:00;98608.78;;;5.15;48.66
78488;BME280;67885;49.758;9.582;2024-01-16T04:55:27;98608.28;;;5.23;47.20
78488;BME280;67885;49.758;9.582;2024-01-16T04:57:56;98602.22;;;5.22;47.17
78488;BME280;67885;49.758;9.582;2024-01-16T05:00:24;98606.50;;;5.23;47.43
78488;BME280;67885;49.758;9.582;2024-01-16T05:02:52;98600.53;;;5.21;47.24
78488;BME280;67885;49.758;9.582;2024-01-16T05:05:19;98582.75;;;4.99;47.26
78488;BME280;67885;49.758;9.582;2024-01-16T05:07:45;98601.66;;;5.17;47.54
78488;BME280;67885;49.758;9.582;2024-01-16T05:10:12;98607.97;;;5.15;47.48
78488;BME280;67885;49.758;9.582;2024-01-16T05:12:39;98589.59;;;5.02;47.29
78488;BME280;67885;49.758;9.582;2024-01-16T05:15:08;98592.41;;;4.99;47.57
78488;BME280;67885;49.758;9.582;2024-01-16T05:17:36;98545.88;;;4.35;46.83
78488;BME280;67885;49.758;9.582;2024-01-16T05:20:05;98610.38;;;5.05;46.96
78488;BME280;67885;49.758;9.582;2024-01-16T05:22:32;98489.22;;;4.19;46.99
78488;BME280;67885;49.758;9.582;2024-01-16T05:24:58;98516.03;;;4.10;47.19
78488;BME280;67885;49.758;9.582;2024-01-16T05:27:25;98606.88;;;4.92;47.31
78488;BME280;67885;49.758;9.582;2024-01-16T05:29:51;98609.06;;;4.85;47.29
78488;BME280;67885;49.758;9.582;2024-01-16T05:32:19;98599.81;;;4.79;47.96
78488;BME280;67885;49.758;9.582;2024-01-16T05:34:46;98600.97;;;4.75;47.75
78488;BME280;67885;49.758;9.582;2024-01-16T05:37:13;98536.66;;;4.42;47.80
78488;BME280;67885;49.758;9.582;2024-01-16T05:39:40;98593.50;;;4.69;47.93
78488;BME280;67885;49.758;9.582;2024-01-16T05:42:06;98586.78;;;4.65;46.92
78488;BME280;67885;49.758;9.582;2024-01-16T05:44:33;98584.75;;;4.55;47.28
78488;BME280;67885;49.758;9.582;2024-01-16T05:47:00;98586.53;;;4.55;47.54
78488;BME280;67885;49.758;9.582;2024-01-16T05:49:29;98553.94;;;4.59;55.15
78488;BME280;67885;49.758;9.582;2024-01-16T05:51:56;98584.66;;;5.10;47.11
78488;BME280;67885;49.758;9.582;2024-01-16T05:54:22;98584.13;;;5.05;45.78
78488;BME280;67885;49.758;9.582;2024-01-16T05:56:49;98431.75;;;4.03;46.43
78488;BME280;67885;49.758;9.582;2024-01-16T05:59:16;98585.34;;;4.86;47.05
78488;BME280;67885;49.758;9.582;2024-01-16T06:01:43;98560.16;;;4.71;46.58
78488;BME280;67885;49.758;9.582;2024-01-16T06:04:10;98592.25;;;4.75;46.77
78488;BME280;67885;49.758;9.582;2024-01-16T06:06:38;98582.06;;;4.70;46.66
78488;BME280;67885;49.758;9.582;2024-01-16T06:09:04;98575.63;;;4.61;47.63
78488;BME280;67885;49.758;9.582;2024-01-16T06:11:31;98587.63;;;4.65;47.26
78488;BME280;67885;49.758;9.582;2024-01-16T06:13:58;98584.03;;;4.66;47.17
78488;BME280;67885;49.758;9.582;2024-01-16T06:16:26;98585.84;;;4.66;47.54
78488;BME280;67885;49.758;9.582;2024-01-16T06:18:52;98569.66;;;4.59;47.49
78488;BME280;67885;49.758;9.582;2024-01-16T06:21:19;98578.91;;;4.65;47.35
78488;BME280;67885;49.758;9.582;2024-01-16T06:23:47;98576.28;;;4.65;47.22
78488;BME280;67885;49.758;9.582;2024-01-16T06:26:14;98540.16;;;4.55;51.88
78488;BME280;67885;49.758;9.582;2024-01-16T06:28:41;98559.00;;;4.75;46.70
78488;BME280;67885;49.758;9.582;2024-01-16T06:31:08;98560.84;;;4.60;46.78
78488;BME280;67885;49.758;9.582;2024-01-16T06:33:35;98549.44;;;4.34;47.39
78488;BME280;67885;49.758;9.582;2024-01-16T06:36:02;98543.03;;;4.25;47.17
78488;BME280;67885;49.758;9.582;2024-01-16T06:38:29;98560.13;;;4.31;47.73
78488;BME280;67885;49.758;9.582;2024-01-16T06:40:58;98570.72;;;4.29;46.71
78488;BME280;67885;49.758;9.582;2024-01-16T06:43:25;98575.97;;;4.29;46.93
78488;BME280;67885;49.758;9.582;2024-01-16T06:45:52;98551.16;;;4.20;46.74
78488;BME280;67885;49.758;9.582;2024-01-16T06:48:19;98574.25;;;4.55;55.07
78488;BME280;67885;49.758;9.582;2024-01-16T06:50:46;98554.72;;;5.00;45.38
78488;BME280;67885;49.758;9.582;2024-01-16T06:53:13;98552.53;;;5.32;44.04
78488;BME280;67885;49.758;9.582;2024-01-16T06:55:39;98556.28;;;5.41;49.70
78488;BME280;67885;49.758;9.582;2024-01-16T06:58:07;98529.31;;;5.39;42.84
78488;BME280;67885;49.758;9.582;2024-01-16T07:00:35;98528.06;;;5.32;43.94
78488;BME280;67885;49.758;9.582;2024-01-16T07:03:02;98530.28;;;5.12;44.27
78488;BME280;67885;49.758;9.582;2024-01-16T07:05:29;98559.25;;;5.11;44.61
78488;BME280;67885;49.758;9.582;2024-01-16T07:07:56;98554.31;;;4.93;44.39
78488;BME280;67885;49.758;9.582;2024-01-16T07:10:23;98549.13;;;4.79;44.87
78488;BME280;67885;49.758;9.582;2024-01-16T07:12:50;98559.50;;;4.67;45.56
78488;BME280;67885;49.758;9.582;2024-01-16T07:15:19;98537.97;;;4.49;45.30
78488;BME280;67885;49.758;9.582;2024-01-16T07:17:45;98560.41;;;4.53;45.43
78488;BME280;67885;49.758;9.582;2024-01-16T07:20:12;98560.91;;;4.46;45.70
78488;BME280;67885;49.758;9.582;2024-01-16T07:22:39;98562.25;;;4.38;45.94
78488;BME280;67885;49.758;9.582;2024-01-16T07:25:06;98549.31;;;4.22;46.36
78488;BME280;67885;49.758;9.582;2024-01-16T07:27:33;98560.16;;;4.16;45.77
78488;BME280;67885;49.758;9.582;2024-01-16T07:30:00;98570.75;;;4.15;46.47
78488;BME280;67885;49.758;9.582;2024-01-16T07:32:28;98584.31;;;4.21;46.02
78488;BME280;67885;49.758;9.582;2024-01-16T07:34:55;98578.22;;;4.21;45.77
78488;BME280;67885;49.758;9.582;2024-01-16T07:37:21;98580.00;;;4.20;46.85
78488;BME280;67885;49.758;9.582;2024-01-16T07:39:48;98588.63;;;4.22;46.26
78488;BME280;67885;49.758;9.582;2024-01-16T07:42:15;98592.16;;;4.21;46.59
78488;BME280;67885;49.758;9.582;2024-01-16T07:44:41;98585.88;;;4.24;45.50
78488;BME280;67885;49.758;9.582;2024-01-16T07:47:08;98586.38;;;4.16;47.15
78488;BME280;67885;49.758;9.582;2024-01-16T07:49:36;98554.81;;;3.91;46.09
78488;BME280;67885;49.758;9.582;2024-01-16T07:52:03;98554.66;;;3.65;46.91
78488;BME280;67885;49.758;9.582;2024-01-16T07:54:30;98594.53;;;4.12;46.69
78488;BME280;67885;49.758;9.582;2024-01-16T07:56:56;98557.16;;;3.81;47.28
78488;BME280;67885;49.758;9.582;2024-01-16T07:59:23;98593.72;;;3.97;47.59
78488;BME280;67885;49.758;9.582;2024-01-16T08:01:50;98533.75;;;3.22;47.28
78488;BME280;67885;49.758;9.582;2024-01-16T08:04:16;98597.84;;;4.01;47.14
78488;BME280;67885;49.758;9.582;2024-01-16T08:06:45;98597.63;;;4.04;47.09
78488;BME280;67885;49.758;9.582;2024-01-16T08:09:12;98598.19;;;4.09;47.83
78488;BME280;67885;49.758;9.582;2024-01-16T08:11:39;98613.13;;;4.21;47.67
78488;BME280;67885;49.758;9.582;2024-01-16T08:14:06;98607.28;;;4.18;46.55
78488;BME280;67885;49.758;9.582;2024-01-16T08:16:32;98609.00;;;4.32;46.78
78488;BME280;67885;49.758;9.582;2024-01-16T08:18:59;98619.28;;;4.35;47.53
78488;BME280;67885;49.758;9.582;2024-01-16T08:21:26;98595.78;;;4.33;46.42
78488;BME280;67885;49.758;9.582;2024-01-16T08:23:54;98610.44;;;4.50;46.20
78488;BME280;67885;49.758;9.582;2024-01-16T08:26:20;98612.66;;;4.56;46.38
78488;BME280;67885;49.758;9.582;2024-01-16T08:28:47;98605.44;;;4.60;46.05
78488;BME280;67885;49.758;9.582;2024-01-16T08:31:16;98623.28;;;4.68;46.30
78488;BME280;67885;49.758;9.582;2024-01-16T08:33:43;98535.03;;;4.14;45.90
78488;BME280;67885;49.758;9.582;2024-01-16T08:36:10;98608.75;;;4.77;46.10
78488;BME280;67885;49.758;9.582;2024-01-16T08:38:37;98533.91;;;4.31;45.34
78488;BME280;67885;49.758;9.582;2024-01-16T08:41:05;98626.06;;;4.92;45.35
78488;BME280;67885;49.758;9.582;2024-01-16T08:43:32;98628.59;;;4.94;45.33
78488;BME280;67885;49.758;9.582;2024-01-16T08:45:58;98619.06;;;4.93;45.30
78488;BME280;67885;49.758;9.582;2024-01-16T08:48:25;98616.56;;;4.91;44.94
78488;BME280;67885;49.758;9.582;2024-01-16T08:50:52;98626.34;;;5.02;45.24
78488;BME280;67885;49.758;9.582;2024-01-16T08:53:19;98632.13;;;4.80;44.83
78488;BME280;67885;49.758;9.582;2024-01-16T08:55:48;98619.78;;;4.95;45.05
78488;BME280;67885;49.758;9.582;2024-01-16T08:58:16;98629.03;;;4.87;44.63
78488;BME280;67885;49.758;9.582;2024-01-16T09:00:42;98622.78;;;4.76;45.57
78488;BME280;67885;49.758;9.582;2024-01-16T09:03:09;98632.34;;;4.77;45.63
78488;BME280;67885;49.758;9.582;2024-01-16T09:05:35;98628.38;;;4.84;45.53
78488;BME280;67885;49.758;9.582;2024-01-16T09:08:04;98619.44;;;4.73;44.66
78488;BME280;67885;49.758;9.582;2024-01-16T09:10:31;98632.03;;;4.81;45.79
78488;BME280;67885;49.758;9.582;2024-01-16T09:12:57;98638.59;;;4.88;44.93
78488;BME280;67885;49.758;9.582;2024-01-16T09:15:26;98568.69;;;4.47;44.88
78488;BME280;67885;49.758;9.582;2024-01-16T09:17:52;98653.34;;;4.77;45.28
78488;BME280;67885;49.758;9.582;2024-01-16T09:20:19;98651.75;;;4.74;46.03
78488;BME280;67885;49.758;9.582;2024-01-16T09:22:45;98648.56;;;4.69;45.77
78488;BME280;67885;49.758;9.582;2024-01-16T09:25:12;98648.19;;;4.75;45.39
78488;BME280;67885;49.758;9.582;2024-01-16T09:27:39;98639.38;;;4.76;45.32
78488;BME280;67885;49.758;9.582;2024-01-16T09:30:07;98644.13;;;4.84;45.62
78488;BME280;67885;49.758;9.582;2024-01-16T09:32:35;98657.66;;;4.90;45.31
78488;BME280;67885;49.758;9.582;2024-01-16T09:35:02;98640.25;;;4.89;45.02
78488;BME280;67885;49.758;9.582;2024-01-16T09:37:31;98608.84;;;4.75;45.31
78488;BME280;67885;49.758;9.582;2024-01-16T09:39:58;98641.88;;;5.05;45.38
78488;BME280;67885;49.758;9.582;2024-01-16T09:42:24;98643.97;;;5.13;45.11
78488;BME280;67885;49.758;9.582;2024-01-16T09:44:52;98644.50;;;5.18;44.56
78488;BME280;67885;49.758;9.582;2024-01-16T09:47:22;98640.94;;;5.19;43.98
78488;BME280;67885;49.758;9.582;2024-01-16T09:49:52;98644.41;;;5.19;44.54
78488;BME280;67885;49.758;9.582;2024-01-16T09:52:21;98641.69;;;5.21;43.76
78488;BME280;67885;49.758;9.582;2024-01-16T09:54:47;98635.47;;;5.22;44.17
78488;BME280;67885;49.758;9.582;2024-01-16T09:57:15;98603.44;;;5.04;43.56
78488;BME280;67885;49.758;9.582;2024-01-16T09:59:43;98637.47;;;5.31;44.06
78488;BME280;67885;49.758;9.582;2024-01-16T10:02:11;98632.78;;;5.36;43.72
78488;BME280;67885;49.758;9.582;2024-01-16T10:04:40;98634.25;;;5.40;43.30
78488;BME280;67885;49.758;9.582;2024-01-16T10:07:10;98636.75;;;5.42;43.22
78488;BME280;67885;49.758;9.582;2024-01-16T10:09:38;98636.66;;;5.44;42.93
78488;BME280;67885;49.758;9.582;2024-01-16T10:12:05;98630.69;;;5.42;42.90
78488;BME280;67885;49.758;9.582;2024-01-16T10:14:33;98603.78;;;5.25;43.46
78488;BME280;67885;49.758;9.582;2024-01-16T10:17:01;98638.88;;;5.50;43.13
78488;BME280;67885;49.758;9.582;2024-01-16T10:19:29;98635.38;;;5.49;42.85
78488;BME280;67885;49.758;9.582;2024-01-16T10:22:01;98628.59;;;5.47;43.42
78488;BME280;67885;49.758;9.582;2024-01-16T10:24:29;98628.25;;;5.51;42.72
78488;BME280;67885;49.758;9.582;2024-01-16T10:26:58;98628.38;;;5.50;43.57
78488;BME280;67885;49.758;9.582;2024-01-16T10:29:28;98624.88;;;5.49;43.17
78488;BME280;67885;49.758;9.582;2024-01-16T10:31:54;98600.84;;;5.43;43.33
78488;BME280;67885;49.758;9.582;2024-01-16T10:34:22;98623.53;;;5.56;43.01
78488;BME280;67885;49.758;9.582;2024-01-16T10:36:51;98621.75;;;5.57;42.42
78488;BME280;67885;49.758;9.582;2024-01-16T10:39:18;98626.34;;;5.53;43.03
78488;BME280;67885;49.758;9.582;2024-01-16T10:41:56;98627.22;;;5.54;42.94
78488;BME280;67885;49.758;9.582;2024-01-16T10:44:22;98614.91;;;5.54;43.44
78488;BME280;67885;49.758;9.582;2024-01-16T10:46:49;98615.53;;;5.58;43.33
78488;BME280;67885;49.758;9.582;2024-01-16T10:49:16;98606.50;;;5.62;43.11
78488;BME280;67885;49.758;9.582;2024-01-16T10:51:44;98607.22;;;5.64;43.02
78488;BME280;67885;49.758;9.582;2024-01-16T10:54:12;98558.72;;;5.31;43.00
78488;BME280;67885;49.758;9.582;2024-01-16T10:56:44;98623.00;;;5.64;43.76
78488;BME280;67885;49.758;9.582;2024-01-16T10:59:18;98540.88;;;5.36;44.02
78488;BME280;67885;49.758;9.582;2024-01-16T11:01:50;98647.34;;;5.79;42.98
78488;BME280;67885;49.758;9.582;2024-01-16T11:04:20;98596.91;;;5.87;42.89
78488;BME280;67885;49.758;9.582;2024-01-16T11:06:47;98595.13;;;5.87;42.23
78488;BME280;67885;49.758;9.582;2024-01-16T11:09:15;98599.94;;;5.94;42.30
78488;BME280;67885;49.758;9.582;2024-01-16T11:11:43;98607.44;;;6.00;42.09
78488;BME280;67885;49.758;9.582;2024-01-16T11:14:11;98594.91;;;5.90;41.64
78488;BME280;67885;49.758;9.582;2024-01-16T11:16:42;98600.69;;;5.96;41.67
78488;BME280;67885;49.758;9.582;2024-01-16T11:19:09;98596.25;;;5.96;42.46
78488;BME280;67885;49.758;9.582;2024-01-16T11:21:38;98596.25;;;5.96;42.43
78488;BME280;67885;49.758;9.582;2024-01-16T11:24:06;98592.91;;;5.94;42.72
78488;BME280;67885;49.758;9.582;2024-01-16T11:26:34;98595.84;;;5.89;42.66
78488;BME280;67885;49.758;9.582;2024-01-16T11:29:35;98572.66;;;5.83;42.54
78488;BME280;67885;49.758;9.582;2024-01-16T11:32:04;98598.81;;;5.98;42.28
78488;BME280;67885;49.758;9.582;2024-01-16T11:34:52;98581.31;;;5.97;42.09
78488;BME280;67885;49.758;9.582;2024-01-16T11:37:26;98555.97;;;5.71;42.45
78488;BME280;67885;49.758;9.582;2024-01-16T11:40:21;98572.63;;;6.09;41.69
78488;BME280;67885;49.758;9.582;2024-01-16T11:42:48;98583.13;;;6.09;43.45
78488;BME280;67885;49.758;9.582;2024-01-16T11:45:50;98570.97;;;6.19;42.19
78488;BME280;67885;49.758;9.582;2024-01-16T11:48:18;98574.44;;;6.20;41.53
78488;BME280;67885;49.758;9.582;2024-01-16T11:50:46;98575.28;;;6.20;41.07
78488;BME280;67885;49.758;9.582;2024-01-16T11:53:33;98571.72;;;6.21;42.21
78488;BME280;67885;49.758;9.582;2024-01-16T11:56:38;98571.72;;;6.21;42.12
78488;BME280;67885;49.758;9.582;2024-01-16T11:59:26;98537.59;;;6.08;42.34
78488;BME280;67885;49.758;9.582;2024-01-16T12:02:02;98558.66;;;6.20;42.25
78488;BME280;67885;49.758;9.582;2024-01-16T12:04:32;98556.16;;;6.18;42.47
78488;BME280;67885;49.758;9.582;2024-01-16T12:07:00;98551.53;;;6.22;43.63
78488;BME280;67885;49.758;9.582;2024-01-16T12:09:28;98543.78;;;6.32;42.71
78488;BME280;67885;49.758;9.582;2024-01-16T12:11:58;98532.56;;;6.30;41.42
78488;BME280;67885;49.758;9.582;2024-01-16T12:14:26;98524.72;;;6.41;42.85
78488;BME280;67885;49.758;9.582;2024-01-16T12:16:53;98512.19;;;6.45;42.12
78488;BME280;67885;49.758;9.582;2024-01-16T12:19:35;98516.47;;;6.46;41.94
78488;BME280;67885;49.758;9.582;2024-01-16T12:22:02;98521.41;;;6.50;42.04
78488;BME280;67885;49.758;9.582;2024-01-16T12:24:29;98521.03;;;6.44;42.22
78488;BME280;67885;49.758;9.582;2024-01-16T12:26:57;98526.44;;;6.53;42.43
78488;BME280;67885;49.758;9.582;2024-01-16T12:29:24;98511.84;;;6.49;41.76
78488;BME280;67885;49.758;9.582;2024-01-16T12:31:50;98511.03;;;6.60;41.93
78488;BME280;67885;49.758;9.582;2024-01-16T12:34:22;98507.09;;;6.66;42.87
78488;BME280;67885;49.758;9.582;2024-01-16T12:37:04;98510.91;;;6.62;42.05
78488;BME280;67885;49.758;9.582;2024-01-16T12:39:31;98507.56;;;6.60;42.01
78488;BME280;67885;49.758;9.582;2024-01-16T12:41:57;98505.16;;;6.56;42.51
78488;BME280;67885;49.758;9.582;2024-01-16T12:44:26;98465.13;;;6.29;42.66
78488;BME280;67885;49.758;9.582;2024-01-16T12:46:54;98502.16;;;6.50;42.78
78488;BME280;67885;49.758;9.582;2024-01-16T12:49:21;98477.47;;;6.28;44.63
78488;BME280;67885;49.758;9.582;2024-01-16T12:51:49;98478.66;;;6.24;43.10
78488;BME280;67885;49.758;9.582;2024-01-16T12:54:18;98495.97;;;6.27;43.41
78488;BME280;67885;49.758;9.582;2024-01-16T12:56:47;98498.81;;;6.23;42.89
78488;BME280;67885;49.758;9.582;2024-01-16T12:59:14;98484.09;;;6.21;43.04
78488;BME280;67885;49.758;9.582;2024-01-16T13:01:42;98477.63;;;6.14;42.97
78488;BME280;67885;49.758;9.582;2024-01-16T13:04:09;98479.69;;;6.21;44.11
78488;BME280;67885;49.758;9.582;2024-01-16T13:06:36;98482.09;;;6.24;42.94
78488;BME280;67885;49.758;9.582;2024-01-16T13:09:06;98455.47;;;6.05;43.64
78488;BME280;67885;49.758;9.582;2024-01-16T13:11:45;98454.47;;;6.19;43.48
78488;BME280;67885;49.758;9.582;2024-01-16T13:14:12;98466.19;;;6.26;42.39